createdAt,value
2023-03-15T00:00:10.456Z,3.95
2023-03-15T00:02:37.084Z,3.87
2023-03-15T00:05:03.891Z,3.95
2023-03-15T00:07:31.188Z,3.98
2023-03-15T00:09:58.063Z,3.78
2023-03-15T00:12:24.524Z,3.90
2023-03-15T00:14:51.513Z,3.76
2023-03-15T00:17:17.996Z,3.78
2023-03-15T00:19:44.530Z,3.95
2023-03-15T00:22:11.285Z,4.21
2023-03-15T00:24:37.816Z,4.16
2023-03-15T00:27:05.957Z,4.16
2023-03-15T00:29:32.789Z,4.17
2023-03-15T00:31:59.443Z,4.28
2023-03-15T00:34:26.216Z,4.12
2023-03-15T00:36:57.592Z,4.24
2023-03-15T00:39:25.842Z,4.15
2023-03-15T00:41:56.919Z,4.16
2023-03-15T00:44:24.538Z,4.02
2023-03-15T00:46:51.272Z,4.04
2023-03-15T00:49:18.297Z,4.11
2023-03-15T00:51:44.839Z,4.13
2023-03-15T00:54:13.946Z,4.16
2023-03-15T00:56:41.361Z,4.00
2023-03-15T00:59:08.631Z,3.98
2023-03-15T01:01:35.606Z,3.92
2023-03-15T01:04:02.106Z,3.96
2023-03-15T01:06:29.672Z,3.87
2023-03-15T01:08:57.309Z,3.99
2023-03-15T01:11:26.605Z,3.63
2023-03-15T01:13:54.819Z,3.52
2023-03-15T01:16:22.324Z,3.35
2023-03-15T01:18:49.305Z,3.52
2023-03-15T01:21:16.575Z,3.49
2023-03-15T01:23:43.709Z,3.50
2023-03-15T01:26:12.909Z,3.41
2023-03-15T01:28:39.721Z,3.32
2023-03-15T01:31:06.556Z,3.49
2023-03-15T01:33:33.285Z,3.33
2023-03-15T01:36:01.792Z,3.29
2023-03-15T01:38:28.936Z,3.28
2023-03-15T01:40:55.523Z,3.38
2023-03-15T01:43:24.819Z,3.55
2023-03-15T01:45:59.998Z,3.60
2023-03-15T01:48:34.244Z,3.53
2023-03-15T01:51:04.373Z,3.38
2023-03-15T01:53:32.554Z,3.29
2023-03-15T01:56:00.841Z,3.32
2023-03-15T01:58:28.524Z,3.37
2023-03-15T02:00:55.247Z,3.44
2023-03-15T02:03:28.038Z,3.28
2023-03-15T02:05:59.191Z,3.26
2023-03-15T02:08:32.820Z,3.47
2023-03-15T02:11:03.143Z,3.53
2023-03-15T02:13:31.299Z,3.54
2023-03-15T02:15:58.844Z,3.49
2023-03-15T02:18:25.423Z,3.34
2023-03-15T02:20:51.954Z,3.29
2023-03-15T02:23:20.973Z,3.32
2023-03-15T02:25:47.396Z,3.33
2023-03-15T02:28:17.839Z,3.25
2023-03-15T02:30:45.719Z,3.30
2023-03-15T02:33:22.469Z,3.26
2023-03-15T02:35:49.108Z,3.29
2023-03-15T02:38:15.737Z,3.24
2023-03-15T02:40:42.827Z,3.13
2023-03-15T02:43:16.080Z,3.19
2023-03-15T02:45:42.872Z,3.15
2023-03-15T02:48:11.068Z,3.04
2023-03-15T02:50:37.977Z,3.10
2023-03-15T02:53:05.710Z,3.03
2023-03-15T02:55:32.814Z,3.15
2023-03-15T02:58:00.499Z,3.20
2023-03-15T03:00:27.142Z,3.15
2023-03-15T03:02:53.691Z,3.03
2023-03-15T03:05:20.646Z,2.98
2023-03-15T03:07:47.851Z,3.07
2023-03-15T03:10:17.326Z,3.16
2023-03-15T03:12:44.061Z,3.08
2023-03-15T03:15:11.736Z,3.09
2023-03-15T03:17:38.564Z,3.06
2023-03-15T03:20:08.125Z,2.98
2023-03-15T03:22:35.398Z,2.90
2023-03-15T03:25:02.620Z,2.88
2023-03-15T03:27:29.574Z,3.11
2023-03-15T03:29:56.485Z,3.26
2023-03-15T03:32:23.049Z,3.08
2023-03-15T03:34:49.653Z,2.99
2023-03-15T03:37:18.562Z,3.02
2023-03-15T03:39:45.637Z,3.06
2023-03-15T03:42:12.219Z,3.02
2023-03-15T03:44:38.670Z,3.04
2023-03-15T03:47:05.345Z,2.90
2023-03-15T03:49:31.925Z,3.06
2023-03-15T03:52:00.394Z,2.85
2023-03-15T03:54:27.439Z,2.70
2023-03-15T03:56:54.312Z,2.67
2023-03-15T03:59:20.824Z,2.82
2023-03-15T04:01:48.291Z,2.98
2023-03-15T04:04:14.945Z,2.92
2023-03-15T04:06:45.990Z,2.88
2023-03-15T04:09:16.567Z,2.82
2023-03-15T04:11:43.947Z,2.89
2023-03-15T04:14:11.279Z,2.70
2023-03-15T04:16:38.257Z,2.74
2023-03-15T04:19:05.894Z,2.63
2023-03-15T04:21:32.722Z,2.57
2023-03-15T04:24:00.193Z,2.59
2023-03-15T04:26:27.175Z,2.54
2023-03-15T04:28:55.338Z,2.51
2023-03-15T04:31:27.207Z,2.36
2023-03-15T04:33:54.771Z,2.52
2023-03-15T04:36:22.397Z,2.58
2023-03-15T04:38:49.316Z,2.62
2023-03-15T04:41:17.451Z,2.67
2023-03-15T04:43:44.213Z,2.43
2023-03-15T04:46:11.708Z,2.36
2023-03-15T04:48:38.257Z,2.82
2023-03-15T04:51:04.936Z,2.55
2023-03-15T04:53:31.528Z,2.47
2023-03-15T04:55:58.054Z,2.43
2023-03-15T04:58:24.558Z,2.68
2023-03-15T05:00:53.229Z,2.49
2023-03-15T05:03:19.778Z,2.46
2023-03-15T05:05:46.425Z,2.42
2023-03-15T05:08:12.977Z,2.44
2023-03-15T05:10:39.648Z,2.34
2023-03-15T05:13:06.492Z,2.18
2023-03-15T05:15:33.328Z,2.33
2023-03-15T05:17:59.905Z,2.35
2023-03-15T05:20:26.593Z,2.54
2023-03-15T05:22:55.755Z,2.50
2023-03-15T05:25:22.286Z,2.55
2023-03-15T05:27:48.816Z,2.53
2023-03-15T05:30:16.320Z,2.47
2023-03-15T05:32:44.972Z,2.46
2023-03-15T05:35:12.813Z,2.56
2023-03-15T05:37:39.694Z,2.52
2023-03-15T05:40:10.318Z,2.55
2023-03-15T05:42:37.108Z,2.49
2023-03-15T05:45:03.869Z,2.56
2023-03-15T05:47:31.564Z,2.62
2023-03-15T05:49:59.118Z,2.61
2023-03-15T05:52:26.500Z,2.58
2023-03-15T05:54:53.198Z,2.53
2023-03-15T05:57:19.704Z,2.57
2023-03-15T05:59:46.195Z,2.44
2023-03-15T06:02:12.837Z,2.53
2023-03-15T06:04:39.608Z,2.51
2023-03-15T06:07:06.128Z,2.58
2023-03-15T06:09:32.640Z,2.39
2023-03-15T06:11:59.269Z,2.63
2023-03-15T06:14:27.257Z,2.73
2023-03-15T06:16:54.002Z,2.90
2023-03-15T06:19:21.469Z,2.76
2023-03-15T06:21:48.407Z,2.88
2023-03-15T06:24:15.076Z,2.79
2023-03-15T06:26:41.638Z,2.81
2023-03-15T06:29:08.289Z,2.78
2023-03-15T06:31:34.762Z,2.71
2023-03-15T06:34:01.679Z,2.71
2023-03-15T06:36:28.280Z,2.77
2023-03-15T06:38:54.992Z,2.83
2023-03-15T06:41:21.542Z,2.84
2023-03-15T06:43:48.093Z,2.84
2023-03-15T06:46:14.620Z,2.95
2023-03-15T06:48:41.225Z,3.01
2023-03-15T06:51:07.921Z,2.86
2023-03-15T06:53:34.704Z,2.92
2023-03-15T06:56:01.231Z,3.04
2023-03-15T06:58:27.789Z,3.12
2023-03-15T07:00:54.355Z,3.04
2023-03-15T07:03:22.418Z,3.08
2023-03-15T07:05:52.487Z,3.05
2023-03-15T07:08:19.810Z,3.11
2023-03-15T07:10:48.349Z,3.05
2023-03-15T07:13:15.372Z,3.26
2023-03-15T07:15:42.219Z,3.30
2023-03-15T07:18:08.903Z,3.21
2023-03-15T07:20:37.720Z,3.23
2023-03-15T07:23:04.505Z,3.36
2023-03-15T07:25:31.024Z,3.52
2023-03-15T07:27:57.687Z,3.67
2023-03-15T07:30:24.842Z,3.73
2023-03-15T07:32:51.525Z,3.72
2023-03-15T07:35:18.294Z,3.86
2023-03-15T07:37:45.758Z,3.84
2023-03-15T07:40:13.843Z,3.86
2023-03-15T07:42:40.504Z,3.75
2023-03-15T07:45:08.096Z,3.81
2023-03-15T07:47:34.980Z,3.72
2023-03-15T07:50:01.536Z,3.78
2023-03-15T07:52:28.117Z,3.89
2023-03-15T07:54:54.759Z,3.95
2023-03-15T07:57:21.232Z,4.02
2023-03-15T07:59:47.744Z,4.16
2023-03-15T08:02:15.286Z,4.38
2023-03-15T08:04:41.825Z,4.67
2023-03-15T08:07:08.409Z,4.91
2023-03-15T08:09:34.993Z,5.10
2023-03-15T08:12:01.829Z,5.58
2023-03-15T08:14:29.179Z,5.91
2023-03-15T08:16:55.765Z,6.03
2023-03-15T08:19:22.280Z,6.98
2023-03-15T08:21:48.769Z,7.42
2023-03-15T08:24:15.634Z,8.11
2023-03-15T08:26:44.817Z,7.89
2023-03-15T08:29:11.498Z,8.30
2023-03-15T08:31:38.234Z,8.82
2023-03-15T08:34:04.788Z,8.69
2023-03-15T08:36:32.722Z,9.19
2023-03-15T08:38:59.266Z,9.55
2023-03-15T08:41:25.839Z,9.95
2023-03-15T08:43:52.347Z,10.00
2023-03-15T08:46:22.136Z,10.19
2023-03-15T08:48:49.184Z,10.10
2023-03-15T08:51:15.708Z,9.75
2023-03-15T08:53:42.207Z,10.32
2023-03-15T08:56:09.345Z,10.65
2023-03-15T08:58:35.969Z,10.63
2023-03-15T09:01:02.404Z,11.06
2023-03-15T09:03:29.024Z,10.77
2023-03-15T09:05:57.816Z,11.39
2023-03-15T09:08:25.288Z,11.11
2023-03-15T09:10:58.253Z,10.92
2023-03-15T09:13:25.640Z,11.25
2023-03-15T09:15:53.462Z,11.23
2023-03-15T09:18:21.068Z,12.62
2023-03-15T09:20:48.014Z,12.91
2023-03-15T09:23:14.581Z,11.89
2023-03-15T09:25:41.675Z,12.89
2023-03-15T09:28:10.390Z,12.77
2023-03-15T09:30:38.373Z,13.41
2023-03-15T09:33:05.195Z,13.44
2023-03-15T09:35:31.956Z,13.78
2023-03-15T09:37:59.075Z,14.35
2023-03-15T09:40:32.230Z,14.60
2023-03-15T09:43:08.882Z,14.42
2023-03-15T09:45:44.518Z,12.58
2023-03-15T09:48:16.641Z,13.55
2023-03-15T09:50:51.576Z,13.29
2023-03-15T09:53:29.490Z,14.48
2023-03-15T09:55:55.987Z,14.49
2023-03-15T09:58:32.890Z,15.00
2023-03-15T10:01:08.120Z,14.15
2023-03-15T10:03:48.022Z,14.20
2023-03-15T10:06:19.194Z,14.60
2023-03-15T10:08:47.313Z,14.61
2023-03-15T10:11:32.165Z,15.25
2023-03-15T10:14:22.568Z,15.68
2023-03-15T10:16:52.054Z,15.52
2023-03-15T10:19:30.801Z,15.95
2023-03-15T10:22:03.130Z,12.58
2023-03-15T10:24:44.557Z,15.07
2023-03-15T10:27:16.874Z,14.69
2023-03-15T10:29:44.352Z,14.61
2023-03-15T10:32:17.975Z,13.12
2023-03-15T10:34:52.229Z,15.77
2023-03-15T10:37:20.236Z,15.67
2023-03-15T10:39:49.714Z,14.32
2023-03-15T10:42:34.001Z,16.06
2023-03-15T10:45:12.630Z,16.00
2023-03-15T10:47:57.500Z,15.44
2023-03-15T10:50:31.831Z,15.04
2023-03-15T10:53:01.727Z,16.39
2023-03-15T10:55:33.106Z,16.15
2023-03-15T10:58:12.347Z,16.81
2023-03-15T11:00:38.808Z,14.38
2023-03-15T11:03:15.547Z,14.63
2023-03-15T11:05:44.768Z,15.33
2023-03-15T11:08:25.541Z,11.97
2023-03-15T11:10:59.029Z,14.39
2023-03-15T11:13:28.073Z,15.85
2023-03-15T11:16:22.165Z,14.36
2023-03-15T11:18:57.514Z,15.61
2023-03-15T11:21:30.758Z,15.24
2023-03-15T11:23:58.419Z,15.56
2023-03-15T11:26:32.636Z,16.90
2023-03-15T11:29:04.123Z,16.41
2023-03-15T11:31:31.364Z,16.80
2023-03-15T11:34:09.024Z,17.54
2023-03-15T11:36:40.027Z,17.83
2023-03-15T11:39:10.637Z,17.88
2023-03-15T11:41:44.650Z,16.57
2023-03-15T11:44:23.661Z,12.97
2023-03-15T11:46:57.596Z,13.29
2023-03-15T11:49:35.226Z,12.34
2023-03-15T11:52:02.342Z,12.86
2023-03-15T11:54:32.260Z,11.66
2023-03-15T11:57:06.287Z,14.21
2023-03-15T11:59:37.075Z,14.04
2023-03-15T12:02:26.654Z,12.66
2023-03-15T12:04:54.480Z,15.19
2023-03-15T12:07:23.908Z,15.50
2023-03-15T12:10:15.374Z,14.35
2023-03-15T12:12:47.367Z,15.37
2023-03-15T12:15:19.807Z,15.98
2023-03-15T12:17:56.381Z,15.95
2023-03-15T12:20:52.080Z,15.50
2023-03-15T12:23:30.586Z,15.30
2023-03-15T12:26:03.198Z,16.26
2023-03-15T12:29:03.949Z,16.17
2023-03-15T12:32:06.122Z,15.00
2023-03-15T12:34:53.318Z,15.34
2023-03-15T12:37:26.201Z,16.11
2023-03-15T12:40:00.267Z,14.54
2023-03-15T12:42:29.539Z,14.67
2023-03-15T12:45:15.980Z,14.61
2023-03-15T12:47:51.568Z,13.90
2023-03-15T12:50:45.887Z,15.50
2023-03-15T12:53:40.005Z,15.94
2023-03-15T12:56:18.887Z,15.36
2023-03-15T12:58:53.579Z,14.73
2023-03-15T13:01:25.612Z,14.30
2023-03-15T13:03:57.538Z,16.61
2023-03-15T13:06:54.736Z,16.37
2023-03-15T13:09:41.957Z,15.78
2023-03-15T13:12:28.463Z,16.13
2023-03-15T13:15:06.363Z,16.75
2023-03-15T13:17:38.697Z,17.09
2023-03-15T13:20:23.219Z,16.78
2023-03-15T13:23:14.479Z,16.27
2023-03-15T13:26:02.902Z,15.24
2023-03-15T13:28:37.444Z,14.50
2023-03-15T13:31:19.025Z,14.41
2023-03-15T13:33:50.704Z,14.05
2023-03-15T13:36:20.607Z,13.42
2023-03-15T13:38:50.015Z,14.44
2023-03-15T13:41:21.375Z,14.78
2023-03-15T13:43:51.379Z,15.26
2023-03-15T13:46:24.623Z,14.26
2023-03-15T13:48:53.677Z,15.29
2023-03-15T13:51:30.534Z,14.33
2023-03-15T13:54:18.529Z,14.66
2023-03-15T13:57:08.921Z,14.34
2023-03-15T13:59:43.005Z,13.75
2023-03-15T14:02:35.774Z,12.87
2023-03-15T14:05:06.524Z,13.38
2023-03-15T14:07:44.203Z,13.46
2023-03-15T14:10:16.971Z,13.52
2023-03-15T14:12:45.132Z,12.73
2023-03-15T14:15:21.098Z,13.19
2023-03-15T14:18:00.815Z,14.03
2023-03-15T14:20:36.302Z,13.81
2023-03-15T14:23:05.887Z,13.67
2023-03-15T14:25:36.226Z,13.01
2023-03-15T14:28:04.672Z,12.38
2023-03-15T14:30:35.422Z,13.05
2023-03-15T14:33:10.020Z,12.17
2023-03-15T14:35:36.599Z,12.75
2023-03-15T14:38:08.740Z,12.78
2023-03-15T14:40:38.608Z,13.01
2023-03-15T14:43:07.472Z,11.99
2023-03-15T14:45:37.510Z,12.14
2023-03-15T14:48:28.342Z,11.97
2023-03-15T14:50:55.451Z,12.08
2023-03-15T14:53:24.992Z,12.04
2023-03-15T14:55:51.919Z,12.49
2023-03-15T14:58:21.037Z,11.97
2023-03-15T15:00:49.868Z,11.86
2023-03-15T15:03:25.707Z,10.78
2023-03-15T15:05:52.300Z,11.63
2023-03-15T15:08:22.428Z,11.28
2023-03-15T15:10:51.873Z,11.52
2023-03-15T15:13:24.315Z,11.55
2023-03-15T15:15:56.209Z,10.91
2023-03-15T15:18:25.396Z,11.12
2023-03-15T15:20:55.523Z,10.56
2023-03-15T15:23:26.685Z,10.82
2023-03-15T15:25:57.498Z,10.38
2023-03-15T15:28:34.601Z,10.87
2023-03-15T15:31:02.126Z,10.53
2023-03-15T15:33:28.681Z,10.60
2023-03-15T15:35:57.479Z,10.33
2023-03-15T15:38:32.165Z,10.22
2023-03-15T15:40:58.787Z,10.59
2023-03-15T15:43:25.379Z,10.68
2023-03-15T15:45:51.935Z,10.57
2023-03-15T15:48:18.470Z,10.91
2023-03-15T15:50:44.985Z,10.50
2023-03-15T15:53:17.078Z,10.38
2023-03-15T15:55:44.375Z,10.23
2023-03-15T15:58:12.461Z,9.66
2023-03-15T16:00:39.152Z,9.85
2023-03-15T16:03:15.204Z,9.68
2023-03-15T16:05:42.600Z,9.58
2023-03-15T16:08:38.564Z,9.17
2023-03-15T16:11:05.816Z,9.58
2023-03-15T16:13:32.343Z,9.81
2023-03-15T16:15:59.212Z,9.29
2023-03-15T16:18:25.776Z,9.43
2023-03-15T16:20:52.576Z,9.51
2023-03-15T16:23:24.987Z,9.56
2023-03-15T16:25:55.547Z,9.66
2023-03-15T16:28:25.863Z,9.20
2023-03-15T16:30:52.479Z,9.54
2023-03-15T16:33:21.316Z,9.07
2023-03-15T16:35:50.435Z,8.95
2023-03-15T16:38:25.593Z,8.98
2023-03-15T16:40:53.274Z,8.96
2023-03-15T16:43:20.342Z,8.91
2023-03-15T16:45:47.103Z,8.90
2023-03-15T16:48:14.381Z,8.77
2023-03-15T16:50:42.531Z,8.66
2023-03-15T16:53:12.380Z,8.90
2023-03-15T16:55:39.774Z,8.58
2023-03-15T16:58:19.135Z,8.62
2023-03-15T17:00:48.388Z,8.64
2023-03-15T17:03:16.620Z,8.39
2023-03-15T17:05:45.799Z,8.45
2023-03-15T17:08:16.108Z,8.20
2023-03-15T17:10:43.075Z,8.24
2023-03-15T17:13:13.493Z,8.31
2023-03-15T17:15:40.543Z,8.43
2023-03-15T17:18:16.502Z,8.42
2023-03-15T17:20:43.504Z,8.15
2023-03-15T17:23:10.125Z,8.23
2023-03-15T17:25:36.859Z,8.13
2023-03-15T17:28:04.812Z,8.24
2023-03-15T17:30:34.317Z,8.14
2023-03-15T17:33:01.966Z,8.12
2023-03-15T17:35:31.898Z,7.95
2023-03-15T17:37:58.508Z,8.09
2023-03-15T17:40:30.217Z,8.08
2023-03-15T17:42:59.216Z,7.82
2023-03-15T17:45:28.374Z,7.75
2023-03-15T17:47:55.776Z,7.67
2023-03-15T17:50:25.024Z,7.75
2023-03-15T17:52:56.632Z,7.72
2023-03-15T17:55:25.396Z,7.73
2023-03-15T17:57:55.420Z,7.61
2023-03-15T18:00:23.653Z,7.64
2023-03-15T18:02:55.716Z,7.70
2023-03-15T18:05:25.555Z,7.54
2023-03-15T18:08:00.379Z,7.49
2023-03-15T18:10:34.029Z,7.53
2023-03-15T18:13:01.976Z,7.47
2023-03-15T18:15:28.727Z,7.60
2023-03-15T18:17:55.326Z,7.51
2023-03-15T18:20:25.926Z,7.31
2023-03-15T18:22:52.451Z,7.51
2023-03-15T18:25:25.819Z,7.40
2023-03-15T18:27:53.318Z,7.53
2023-03-15T18:30:23.276Z,7.39
2023-03-15T18:32:51.083Z,7.26
2023-03-15T18:35:27.507Z,7.08
2023-03-15T18:37:56.091Z,7.16
2023-03-15T18:40:23.247Z,7.18
2023-03-15T18:42:49.945Z,7.21
2023-03-15T18:45:23.168Z,7.07
2023-03-15T18:47:50.096Z,6.94
2023-03-15T18:50:17.739Z,6.92
2023-03-15T18:52:44.464Z,7.16
2023-03-15T18:55:16.845Z,7.29
2023-03-15T18:57:46.032Z,7.14
2023-03-15T19:00:16.319Z,6.68
2023-03-15T19:02:45.641Z,6.85
2023-03-15T19:05:14.037Z,6.91
2023-03-15T19:07:41.107Z,6.99
2023-03-15T19:10:13.361Z,6.95
2023-03-15T19:12:44.888Z,6.85
2023-03-15T19:15:15.282Z,6.97
2023-03-15T19:17:42.085Z,6.83
2023-03-15T19:20:12.067Z,6.75
2023-03-15T19:22:39.668Z,6.66
2023-03-15T19:25:06.841Z,6.55
2023-03-15T19:27:33.454Z,6.52
2023-03-15T19:29:59.894Z,6.44
2023-03-15T19:32:27.339Z,6.62
2023-03-15T19:34:53.761Z,6.50
2023-03-15T19:37:20.285Z,6.40
2023-03-15T19:39:46.832Z,6.44
2023-03-15T19:42:13.373Z,6.62
2023-03-15T19:44:39.788Z,6.42
2023-03-15T19:47:06.809Z,6.47
2023-03-15T19:49:33.278Z,6.49
2023-03-15T19:51:59.750Z,6.39
2023-03-15T19:54:26.474Z,6.37
2023-03-15T19:56:54.095Z,6.23
2023-03-15T19:59:20.715Z,6.29
2023-03-15T20:01:47.249Z,6.32
2023-03-15T20:04:13.767Z,6.35
2023-03-15T20:06:40.330Z,6.32
2023-03-15T20:09:06.795Z,6.23
2023-03-15T20:11:33.458Z,6.31
2023-03-15T20:13:59.947Z,6.17
2023-03-15T20:16:26.475Z,6.21
2023-03-15T20:18:55.183Z,6.03
2023-03-15T20:21:22.358Z,5.94
2023-03-15T20:23:49.178Z,5.94
2023-03-15T20:26:17.545Z,6.24
2023-03-15T20:28:44.804Z,6.02
2023-03-15T20:31:16.829Z,5.93
2023-03-15T20:33:45.500Z,5.94
2023-03-15T20:36:12.052Z,5.77
2023-03-15T20:38:38.564Z,5.79
2023-03-15T20:41:06.593Z,5.90
2023-03-15T20:43:33.542Z,5.92
2023-03-15T20:46:02.017Z,5.82
2023-03-15T20:48:29.833Z,5.87
2023-03-15T20:51:00.245Z,5.70
2023-03-15T20:53:26.818Z,5.84
2023-03-15T20:55:53.385Z,5.62
2023-03-15T20:58:19.814Z,5.92
2023-03-15T21:00:46.292Z,5.75
2023-03-15T21:03:14.901Z,5.89
2023-03-15T21:05:43.272Z,5.74
2023-03-15T21:08:10.257Z,5.63
2023-03-15T21:10:37.421Z,5.62
2023-03-15T21:13:09.503Z,5.76
2023-03-15T21:15:46.318Z,5.68
2023-03-15T21:18:17.496Z,5.79
2023-03-15T21:20:44.510Z,5.64
2023-03-15T21:23:11.383Z,5.51
2023-03-15T21:25:38.356Z,5.57
2023-03-15T21:28:04.876Z,5.70
2023-03-15T21:30:32.078Z,5.63
2023-03-15T21:32:58.672Z,5.63
2023-03-15T21:35:25.561Z,5.69
2023-03-15T21:37:52.005Z,5.60
2023-03-15T21:40:18.439Z,5.57
2023-03-15T21:42:47.610Z,5.53
2023-03-15T21:45:14.281Z,5.59
2023-03-15T21:47:40.785Z,5.54
2023-03-15T21:50:07.944Z,5.51
2023-03-15T21:52:34.580Z,5.45
2023-03-15T21:55:01.139Z,5.27
2023-03-15T21:57:27.763Z,5.43
2023-03-15T21:59:54.309Z,5.20
2023-03-15T22:02:21.939Z,5.24
2023-03-15T22:04:48.424Z,5.11
2023-03-15T22:07:14.979Z,5.33
2023-03-15T22:09:41.798Z,5.24
2023-03-15T22:12:08.872Z,5.37
2023-03-15T22:14:35.489Z,5.39
2023-03-15T22:17:04.918Z,5.33
2023-03-15T22:19:32.349Z,5.43
2023-03-15T22:21:58.882Z,5.31
2023-03-15T22:24:25.367Z,5.45
2023-03-15T22:26:53.090Z,5.34
2023-03-15T22:29:19.609Z,5.36
2023-03-15T22:31:46.081Z,5.36
2023-03-15T22:34:12.540Z,5.20
2023-03-15T22:36:39.144Z,5.28
2023-03-15T22:39:05.895Z,5.28
2023-03-15T22:41:32.353Z,5.12
2023-03-15T22:43:58.828Z,5.03
2023-03-15T22:46:26.091Z,4.96
2023-03-15T22:48:53.230Z,4.91
2023-03-15T22:51:19.711Z,5.08
2023-03-15T22:53:46.204Z,4.95
2023-03-15T22:56:12.744Z,4.91
2023-03-15T22:58:39.252Z,5.09
2023-03-15T23:01:05.888Z,5.14
2023-03-15T23:03:32.359Z,4.84
2023-03-15T23:05:58.939Z,5.05
2023-03-15T23:08:25.411Z,4.80
2023-03-15T23:10:51.907Z,4.90
2023-03-15T23:13:18.410Z,4.92
2023-03-15T23:15:44.922Z,4.87
2023-03-15T23:18:11.383Z,4.85
2023-03-15T23:20:37.954Z,4.96
2023-03-15T23:23:04.442Z,5.06
2023-03-15T23:25:30.911Z,4.87
2023-03-15T23:27:57.698Z,4.80
2023-03-15T23:30:24.357Z,5.01
2023-03-15T23:32:57.400Z,4.89
2023-03-15T23:35:24.195Z,4.78
2023-03-15T23:37:50.686Z,4.84
2023-03-15T23:40:17.262Z,4.76
2023-03-15T23:42:44.076Z,4.82
2023-03-15T23:45:12.333Z,4.70
2023-03-15T23:47:39.100Z,4.72
2023-03-15T23:50:06.045Z,4.59
2023-03-15T23:52:32.550Z,4.79
2023-03-15T23:54:59.009Z,4.72
2023-03-15T23:57:25.836Z,4.81
2023-03-15T23:59:52.481Z,4.75
